createdAt,value
2022-09-12T00:01:12.078Z,78.40
2022-09-12T00:03:39.747Z,78.40
2022-09-12T00:06:12.060Z,78.50
2022-09-12T00:08:39.052Z,78.50
2022-09-12T00:11:08.288Z,78.50
2022-09-12T00:13:39.522Z,78.50
2022-09-12T00:16:15.936Z,78.60
2022-09-12T00:18:44.910Z,78.60
2022-09-12T00:21:11.938Z,78.60
2022-09-12T00:23:38.908Z,78.70
2022-09-12T00:26:07.012Z,78.70
2022-09-12T00:28:34.665Z,78.80
2022-09-12T00:31:04.894Z,78.80
2022-09-12T00:33:33.424Z,78.80
2022-09-12T00:36:03.465Z,78.80
2022-09-12T00:38:30.292Z,78.80
2022-09-12T00:40:57.380Z,78.90
2022-09-12T00:43:38.892Z,79.00
2022-09-12T00:46:14.036Z,79.00
2022-09-12T00:48:46.237Z,79.00
2022-09-12T00:51:14.166Z,79.00
2022-09-12T00:53:43.604Z,79.00
2022-09-12T00:56:12.473Z,79.00
2022-09-12T00:58:47.032Z,79.10
2022-09-12T01:01:14.223Z,79.20
2022-09-12T01:03:42.671Z,79.20
2022-09-12T01:06:17.940Z,79.20
2022-09-12T01:08:46.857Z,79.30
2022-09-12T01:11:14.372Z,79.30
2022-09-12T01:13:41.355Z,79.30
2022-09-12T01:16:08.816Z,79.30
2022-09-12T01:18:51.577Z,79.30
2022-09-12T01:21:27.327Z,79.40
2022-09-12T01:24:36.255Z,79.40
2022-09-12T01:27:28.417Z,79.40
2022-09-12T01:30:20.688Z,79.40
2022-09-12T01:33:03.842Z,79.50
2022-09-12T01:35:37.429Z,79.50
2022-09-12T01:38:12.325Z,79.50
2022-09-12T01:40:46.689Z,79.60
2022-09-12T01:43:21.408Z,79.60
2022-09-12T01:45:58.304Z,79.60
2022-09-12T01:48:28.867Z,79.60
2022-09-12T01:51:04.633Z,79.70
2022-09-12T01:53:36.719Z,79.60
2022-09-12T01:56:10.237Z,79.70
2022-09-12T01:58:43.598Z,79.70
2022-09-12T02:01:16.859Z,79.70
2022-09-12T02:03:49.354Z,79.80
2022-09-12T02:06:20.607Z,79.80
2022-09-12T02:08:51.588Z,79.80
2022-09-12T02:11:19.563Z,79.80
2022-09-12T02:13:55.301Z,79.80
2022-09-12T02:16:30.661Z,79.80
2022-09-12T02:19:01.566Z,79.90
2022-09-12T02:21:34.268Z,79.90
2022-09-12T02:24:04.789Z,79.90
2022-09-12T02:26:36.794Z,79.90
2022-09-12T02:29:04.459Z,80.00
2022-09-12T02:31:39.200Z,80.00
2022-09-12T02:34:13.822Z,80.10
2022-09-12T02:36:50.361Z,80.10
2022-09-12T02:39:20.052Z,80.10
2022-09-12T02:41:47.529Z,80.10
2022-09-12T02:44:14.809Z,80.20
2022-09-12T02:46:46.712Z,80.20
2022-09-12T02:49:14.641Z,80.30
2022-09-12T02:51:41.926Z,80.30
2022-09-12T02:54:10.054Z,80.30
2022-09-12T02:56:41.062Z,80.30
2022-09-12T02:59:11.417Z,80.30
2022-09-12T03:01:58.760Z,80.40
2022-09-12T03:04:55.248Z,80.40
2022-09-12T03:07:45.060Z,80.50
2022-09-12T03:10:21.236Z,80.50
2022-09-12T03:12:55.724Z,80.50
2022-09-12T03:15:34.744Z,80.50
2022-09-12T03:18:12.809Z,80.50
2022-09-12T03:20:47.780Z,80.60
2022-09-12T03:23:24.880Z,80.60
2022-09-12T03:25:56.743Z,80.70
2022-09-12T03:28:23.637Z,80.80
2022-09-12T03:30:53.356Z,80.80
2022-09-12T03:33:23.473Z,80.80
2022-09-12T03:35:51.789Z,80.80
2022-09-12T03:38:18.997Z,80.80
2022-09-12T03:40:47.789Z,80.80
2022-09-12T03:43:16.557Z,80.90
2022-09-12T03:45:43.521Z,80.80
2022-09-12T03:48:10.338Z,80.90
2022-09-12T03:50:38.473Z,80.90
2022-09-12T03:53:05.316Z,80.90
2022-09-12T03:55:32.176Z,80.80
2022-09-12T03:57:59.382Z,81.00
2022-09-12T04:00:26.206Z,81.00
2022-09-12T04:02:56.911Z,81.00
2022-09-12T04:05:24.909Z,80.90
2022-09-12T04:07:53.109Z,81.00
2022-09-12T04:10:20.044Z,81.00
2022-09-12T04:12:46.990Z,81.00
2022-09-12T04:15:14.096Z,80.90
2022-09-12T04:17:41.036Z,81.00
2022-09-12T04:20:08.510Z,81.00
2022-09-12T04:22:35.454Z,81.10
2022-09-12T04:25:04.663Z,81.10
2022-09-12T04:27:31.777Z,81.10
2022-09-12T04:29:59.493Z,81.10
2022-09-12T04:32:26.699Z,81.10
2022-09-12T04:34:53.584Z,81.20
2022-09-12T04:37:21.189Z,81.20
2022-09-12T04:39:49.536Z,81.20
2022-09-12T04:42:17.788Z,81.00
2022-09-12T04:44:44.805Z,81.00
2022-09-12T04:47:11.590Z,81.20
2022-09-12T04:49:38.715Z,81.20
2022-09-12T04:52:05.913Z,81.30
2022-09-12T04:54:32.997Z,81.30
2022-09-12T04:57:00.036Z,81.20
2022-09-12T04:59:28.387Z,81.30
2022-09-12T05:02:02.766Z,81.30
2022-09-12T05:04:29.973Z,81.40
2022-09-12T05:07:02.930Z,81.30
2022-09-12T05:09:29.723Z,81.20
2022-09-12T05:12:05.351Z,81.40
2022-09-12T05:14:34.507Z,81.40
2022-09-12T05:17:05.954Z,81.40
2022-09-12T05:19:33.107Z,81.40
2022-09-12T05:22:00.435Z,81.40
2022-09-12T05:24:27.521Z,81.40
2022-09-12T05:26:54.433Z,81.40
2022-09-12T05:29:21.661Z,81.40
2022-09-12T05:31:52.439Z,81.40
2022-09-12T05:34:19.953Z,81.50
2022-09-12T05:36:47.226Z,81.50
2022-09-12T05:39:14.213Z,81.60
2022-09-12T05:41:41.331Z,81.50
2022-09-12T05:44:12.651Z,81.60
2022-09-12T05:46:41.800Z,81.60
2022-09-12T05:49:12.770Z,81.60
2022-09-12T05:51:41.978Z,81.50
2022-09-12T05:54:11.098Z,81.60
2022-09-12T05:56:39.666Z,81.60
2022-09-12T05:59:12.319Z,81.60
2022-09-12T06:01:39.800Z,81.50
2022-09-12T06:04:09.520Z,81.60
2022-09-12T06:06:38.930Z,81.70
2022-09-12T06:09:07.251Z,81.60
2022-09-12T06:11:36.090Z,81.60
2022-09-12T06:14:03.676Z,81.80
2022-09-12T06:16:32.586Z,81.60
2022-09-12T06:19:01.400Z,81.80
2022-09-12T06:21:35.237Z,81.80
2022-09-12T06:24:02.716Z,81.20
2022-09-12T06:26:30.569Z,81.60
2022-09-12T06:29:03.180Z,81.80
2022-09-12T06:31:31.966Z,81.60
2022-09-12T06:34:01.363Z,81.20
2022-09-12T06:36:31.600Z,81.70
2022-09-12T06:39:01.037Z,81.80
2022-09-12T06:41:29.211Z,81.70
2022-09-12T06:43:57.034Z,81.60
2022-09-12T06:46:24.445Z,81.20
2022-09-12T06:48:51.728Z,81.80
2022-09-12T06:51:20.236Z,81.60
2022-09-12T06:53:49.992Z,80.90
2022-09-12T06:56:19.361Z,80.70
2022-09-12T06:58:47.329Z,81.00
2022-09-12T07:01:16.811Z,81.00
2022-09-12T07:03:48.283Z,80.40
2022-09-12T07:06:18.161Z,80.20
2022-09-12T07:08:45.919Z,80.40
2022-09-12T07:11:15.970Z,79.90
2022-09-12T07:13:44.792Z,80.10
2022-09-12T07:16:17.315Z,80.00
2022-09-12T07:18:51.117Z,80.10
2022-09-12T07:21:18.071Z,79.90
2022-09-12T07:23:45.578Z,79.40
2022-09-12T07:26:14.545Z,78.90
2022-09-12T07:28:42.058Z,78.70
2022-09-12T07:31:10.915Z,78.40
2022-09-12T07:33:38.646Z,78.50
2022-09-12T07:36:08.768Z,78.50
2022-09-12T07:38:36.683Z,78.20
2022-09-12T07:41:10.879Z,78.00
2022-09-12T07:43:39.320Z,77.90
2022-09-12T07:46:06.704Z,77.70
2022-09-12T07:48:33.903Z,77.60
2022-09-12T07:51:02.355Z,77.50
2022-09-12T07:53:32.924Z,77.30
2022-09-12T07:56:00.664Z,77.20
2022-09-12T07:58:27.687Z,77.40
2022-09-12T08:01:02.611Z,77.10
2022-09-12T08:03:29.704Z,76.70
2022-09-12T08:06:03.292Z,76.30
2022-09-12T08:08:30.542Z,75.90
2022-09-12T08:10:57.866Z,75.70
2022-09-12T08:13:25.761Z,75.40
2022-09-12T08:15:52.679Z,74.70
2022-09-12T08:18:20.900Z,74.90
2022-09-12T08:20:48.191Z,74.70
2022-09-12T08:23:15.056Z,74.20
2022-09-12T08:25:41.878Z,74.70
2022-09-12T08:28:08.892Z,74.20
2022-09-12T08:30:36.192Z,74.20
2022-09-12T08:33:03.754Z,74.40
2022-09-12T08:35:32.228Z,74.30
2022-09-12T08:37:59.071Z,74.20
2022-09-12T08:40:26.466Z,73.80
2022-09-12T08:43:01.548Z,73.30
2022-09-12T08:45:36.770Z,73.30
2022-09-12T08:48:06.238Z,73.00
2022-09-12T08:50:34.616Z,72.40
2022-09-12T08:53:04.816Z,72.70
2022-09-12T08:55:34.871Z,72.30
2022-09-12T08:58:07.973Z,72.50
2022-09-12T09:00:42.925Z,72.20
2022-09-12T09:03:27.152Z,72.00
2022-09-12T09:06:04.037Z,71.30
2022-09-12T09:08:45.045Z,72.20
2022-09-12T09:11:26.941Z,71.70
2022-09-12T09:14:22.439Z,71.00
2022-09-12T09:16:52.874Z,72.10
2022-09-12T09:19:25.668Z,70.80
2022-09-12T09:21:58.993Z,70.50
2022-09-12T09:24:34.544Z,70.60
2022-09-12T09:27:14.285Z,70.20
2022-09-12T09:29:54.949Z,70.50
2022-09-12T09:32:27.019Z,70.30
2022-09-12T09:34:54.057Z,69.60
2022-09-12T09:37:31.153Z,69.80
2022-09-12T09:40:07.236Z,70.20
2022-09-12T09:42:44.244Z,69.00
2022-09-12T09:45:16.348Z,69.00
2022-09-12T09:47:45.559Z,69.30
2022-09-12T09:50:16.791Z,69.50
2022-09-12T09:52:46.496Z,69.90
2022-09-12T09:55:18.146Z,69.30
2022-09-12T09:57:47.019Z,69.20
2022-09-12T10:00:30.464Z,69.00
2022-09-12T10:03:25.615Z,69.20
2022-09-12T10:05:54.263Z,68.80
2022-09-12T10:08:24.547Z,69.30
2022-09-12T10:11:01.778Z,69.50
2022-09-12T10:13:37.782Z,69.20
2022-09-12T10:16:07.103Z,69.00
2022-09-12T10:18:40.448Z,68.70
2022-09-12T10:21:20.727Z,68.70
2022-09-12T10:24:00.173Z,69.10
2022-09-12T10:26:33.473Z,68.60
2022-09-12T10:29:06.784Z,68.60
2022-09-12T10:31:43.387Z,68.50
2022-09-12T10:34:22.628Z,68.60
2022-09-12T10:36:52.114Z,68.50
2022-09-12T10:39:20.809Z,68.60
2022-09-12T10:41:47.917Z,68.00
2022-09-12T10:44:17.041Z,68.30
2022-09-12T10:46:44.613Z,68.60
2022-09-12T10:49:21.755Z,68.00
2022-09-12T10:51:49.320Z,68.10
2022-09-12T10:54:18.433Z,67.90
2022-09-12T10:56:59.445Z,67.80
2022-09-12T10:59:35.851Z,67.90
2022-09-12T11:02:14.987Z,67.90
2022-09-12T11:04:52.835Z,67.60
2022-09-12T11:07:40.438Z,66.60
2022-09-12T11:10:22.667Z,67.80
2022-09-12T11:12:58.363Z,67.10
2022-09-12T11:15:52.677Z,67.60
2022-09-12T11:18:43.336Z,66.70
2022-09-12T11:21:26.780Z,66.40
2022-09-12T11:24:19.824Z,65.50
2022-09-12T11:26:59.517Z,66.50
2022-09-12T11:29:42.059Z,66.40
2022-09-12T11:32:44.693Z,66.10
2022-09-12T11:35:24.528Z,66.10
2022-09-12T11:38:05.147Z,66.50
2022-09-12T11:40:38.689Z,66.20
2022-09-12T11:43:12.673Z,66.40
2022-09-12T11:45:53.900Z,66.40
2022-09-12T11:48:31.094Z,65.50
2022-09-12T11:50:59.838Z,66.50
2022-09-12T11:53:34.349Z,65.90
2022-09-12T11:56:09.439Z,66.00
2022-09-12T11:58:39.153Z,65.70
2022-09-12T12:01:15.155Z,65.80
2022-09-12T12:03:44.346Z,66.30
2022-09-12T12:06:16.785Z,66.10
2022-09-12T12:08:46.141Z,65.80
2022-09-12T12:11:15.362Z,66.00
2022-09-12T12:13:48.434Z,65.40
2022-09-12T12:16:23.058Z,65.30
2022-09-12T12:18:55.631Z,65.40
2022-09-12T12:21:37.742Z,64.30
2022-09-12T12:24:15.442Z,64.50
2022-09-12T12:26:54.999Z,64.60
2022-09-12T12:29:43.900Z,64.00
2022-09-12T12:32:26.195Z,64.00
2022-09-12T12:35:20.580Z,63.60
2022-09-12T12:37:52.759Z,63.90
2022-09-12T12:40:26.464Z,63.80
2022-09-12T12:43:04.949Z,64.10
2022-09-12T12:46:00.898Z,63.30
2022-09-12T12:48:49.138Z,63.50
2022-09-12T12:51:36.202Z,63.40
2022-09-12T12:54:07.778Z,63.50
2022-09-12T12:56:40.931Z,63.50
2022-09-12T12:59:18.195Z,63.80
2022-09-12T13:01:54.256Z,63.30
2022-09-12T13:04:26.804Z,63.80
2022-09-12T13:07:05.799Z,63.20
2022-09-12T13:09:39.751Z,63.30
2022-09-12T13:12:09.904Z,63.40
2022-09-12T13:14:49.779Z,63.20
2022-09-12T13:17:22.741Z,63.50
2022-09-12T13:20:16.814Z,63.10
2022-09-12T13:22:43.357Z,62.60
2022-09-12T13:25:22.855Z,61.30
2022-09-12T13:28:06.234Z,62.10
2022-09-12T13:30:35.431Z,62.50
2022-09-12T13:33:13.019Z,62.30
2022-09-12T13:35:54.742Z,62.50
2022-09-12T13:38:30.436Z,62.60
2022-09-12T13:41:13.771Z,62.80
2022-09-12T13:43:43.139Z,62.50
2022-09-12T13:46:15.082Z,62.30
2022-09-12T13:48:42.676Z,61.50
2022-09-12T13:51:23.741Z,61.70
2022-09-12T13:53:52.463Z,61.10
2022-09-12T13:56:20.533Z,61.70
2022-09-12T13:58:56.346Z,61.40
2022-09-12T14:01:24.895Z,61.70
2022-09-12T14:04:11.639Z,61.50
2022-09-12T14:06:49.509Z,62.00
2022-09-12T14:09:25.123Z,61.30
2022-09-12T14:11:53.174Z,61.20
2022-09-12T14:14:27.737Z,61.70
2022-09-12T14:16:57.627Z,61.40
2022-09-12T14:19:26.115Z,61.40
2022-09-12T14:21:55.547Z,61.30
2022-09-12T14:24:24.435Z,60.60
2022-09-12T14:26:54.096Z,61.10
2022-09-12T14:29:22.440Z,61.30
2022-09-12T14:32:01.501Z,61.50
2022-09-12T14:34:29.076Z,61.80
2022-09-12T14:36:58.611Z,61.20
2022-09-12T14:39:30.748Z,62.10
2022-09-12T14:42:04.182Z,61.00
2022-09-12T14:44:31.881Z,61.20
2022-09-12T14:47:11.292Z,60.40
2022-09-12T14:49:38.618Z,59.40
2022-09-12T14:52:16.824Z,60.00
2022-09-12T14:54:44.478Z,60.10
2022-09-12T14:57:34.434Z,59.30
2022-09-12T15:00:20.815Z,60.00
2022-09-12T15:02:48.670Z,59.70
2022-09-12T15:05:19.045Z,60.70
2022-09-12T15:07:53.859Z,59.70
2022-09-12T15:10:25.143Z,60.20
2022-09-12T15:13:09.537Z,60.80
2022-09-12T15:15:37.213Z,60.50
2022-09-12T15:18:06.759Z,60.70
2022-09-12T15:20:35.758Z,60.70
2022-09-12T15:23:04.622Z,60.70
2022-09-12T15:25:31.448Z,60.60
2022-09-12T15:27:58.785Z,60.80
2022-09-12T15:30:28.838Z,60.50
2022-09-12T15:32:55.787Z,60.30
2022-09-12T15:35:25.673Z,60.20
2022-09-12T15:37:52.704Z,60.50
2022-09-12T15:40:21.297Z,59.80
2022-09-12T15:42:48.105Z,61.10
2022-09-12T15:45:19.519Z,60.10
2022-09-12T15:47:46.807Z,60.00
2022-09-12T15:50:14.059Z,59.60
2022-09-12T15:52:42.893Z,60.30
2022-09-12T15:55:16.350Z,59.90
2022-09-12T15:57:45.704Z,60.20
2022-09-12T16:00:13.778Z,60.10
2022-09-12T16:02:40.858Z,59.30
2022-09-12T16:05:14.249Z,59.60
2022-09-12T16:07:41.200Z,59.30
2022-09-12T16:10:10.903Z,59.30
2022-09-12T16:12:37.703Z,59.10
2022-09-12T16:15:07.044Z,59.20
2022-09-12T16:17:42.587Z,59.10
2022-09-12T16:20:10.587Z,58.30
2022-09-12T16:22:37.443Z,59.60
2022-09-12T16:25:05.432Z,58.70
2022-09-12T16:27:32.911Z,58.90
2022-09-12T16:29:59.811Z,59.40
2022-09-12T16:32:28.073Z,58.80
2022-09-12T16:34:55.216Z,59.10
2022-09-12T16:37:22.219Z,59.50
2022-09-12T16:39:49.963Z,59.80
2022-09-12T16:42:19.330Z,60.00
2022-09-12T16:44:46.244Z,60.00
2022-09-12T16:47:13.627Z,60.60
2022-09-12T16:49:41.855Z,60.30
2022-09-12T16:52:09.146Z,60.10
2022-09-12T16:54:36.119Z,60.60
2022-09-12T16:57:05.197Z,60.50
2022-09-12T16:59:32.443Z,60.50
2022-09-12T17:01:59.350Z,61.00
2022-09-12T17:04:26.504Z,61.00
2022-09-12T17:06:54.821Z,60.90
2022-09-12T17:09:22.176Z,60.90
2022-09-12T17:11:50.489Z,61.10
2022-09-12T17:14:17.393Z,61.20
2022-09-12T17:16:51.906Z,61.20
2022-09-12T17:19:21.251Z,61.50
2022-09-12T17:21:49.982Z,61.50
2022-09-12T17:24:19.110Z,61.90
2022-09-12T17:26:46.462Z,61.90
2022-09-12T17:29:14.351Z,62.20
2022-09-12T17:31:41.778Z,62.30
2022-09-12T17:34:09.847Z,62.40
2022-09-12T17:36:37.215Z,62.40
2022-09-12T17:39:04.647Z,62.50
2022-09-12T17:41:46.658Z,62.70
2022-09-12T17:44:15.386Z,62.80
2022-09-12T17:46:42.692Z,63.00
2022-09-12T17:49:13.240Z,62.80
2022-09-12T17:51:40.541Z,62.90
2022-09-12T17:54:10.503Z,63.20
2022-09-12T17:56:39.961Z,63.10
2022-09-12T17:59:08.107Z,63.30
2022-09-12T18:02:01.764Z,63.40
2022-09-12T18:04:31.251Z,63.50
2022-09-12T18:07:00.990Z,63.50
2022-09-12T18:09:28.460Z,63.70
2022-09-12T18:11:57.275Z,63.90
2022-09-12T18:14:26.108Z,63.90
2022-09-12T18:16:53.040Z,64.00
2022-09-12T18:19:19.860Z,64.20
2022-09-12T18:21:46.829Z,64.30
2022-09-12T18:24:13.742Z,64.50
2022-09-12T18:26:40.727Z,64.70
2022-09-12T18:29:09.013Z,64.80
2022-09-12T18:31:36.424Z,64.90
2022-09-12T18:34:05.954Z,65.10
2022-09-12T18:36:33.176Z,65.30
2022-09-12T18:39:00.050Z,65.50
2022-09-12T18:41:28.857Z,65.70
2022-09-12T18:43:56.863Z,65.80
2022-09-12T18:46:26.602Z,66.00
2022-09-12T18:48:57.594Z,66.10
2022-09-12T18:51:27.385Z,66.20
2022-09-12T18:53:56.324Z,66.30
2022-09-12T18:56:24.771Z,66.50
2022-09-12T18:58:53.639Z,66.60
2022-09-12T19:01:22.436Z,66.70
2022-09-12T19:03:52.127Z,66.80
2022-09-12T19:06:21.177Z,67.00
2022-09-12T19:08:48.736Z,67.00
2022-09-12T19:11:16.371Z,67.20
2022-09-12T19:13:45.216Z,67.20
2022-09-12T19:16:15.105Z,67.30
2022-09-12T19:18:42.851Z,67.40
2022-09-12T19:21:19.316Z,67.40
2022-09-12T19:23:46.448Z,67.50
2022-09-12T19:26:15.182Z,67.70
2022-09-12T19:28:42.603Z,67.70
2022-09-12T19:31:12.033Z,67.60
2022-09-12T19:33:40.067Z,67.80
2022-09-12T19:36:22.231Z,67.80
2022-09-12T19:38:58.225Z,67.90
2022-09-12T19:41:25.362Z,68.10
2022-09-12T19:43:52.601Z,68.10
2022-09-12T19:46:21.107Z,68.20
2022-09-12T19:48:48.909Z,68.30
2022-09-12T19:51:17.595Z,68.30
2022-09-12T19:53:45.439Z,68.30
2022-09-12T19:56:14.776Z,68.50
2022-09-12T19:58:43.452Z,68.50
2022-09-12T20:01:12.171Z,68.50
2022-09-12T20:03:39.857Z,68.60
2022-09-12T20:06:09.355Z,68.70
2022-09-12T20:08:40.122Z,68.70
2022-09-12T20:11:07.608Z,68.70
2022-09-12T20:13:36.406Z,68.90
2022-09-12T20:16:07.618Z,68.90
2022-09-12T20:18:34.804Z,69.00
2022-09-12T20:21:08.508Z,68.90
2022-09-12T20:23:35.331Z,69.10
2022-09-12T20:26:02.375Z,69.10
2022-09-12T20:28:29.210Z,69.20
2022-09-12T20:31:02.667Z,69.40
2022-09-12T20:33:30.743Z,69.50
2022-09-12T20:36:06.547Z,69.40
2022-09-12T20:38:33.996Z,69.60
2022-09-12T20:41:02.285Z,69.60
2022-09-12T20:43:29.563Z,69.80
2022-09-12T20:45:56.513Z,69.80
2022-09-12T20:48:26.173Z,69.90
2022-09-12T20:50:52.964Z,70.10
2022-09-12T20:53:20.147Z,70.10
2022-09-12T20:55:51.472Z,70.10
2022-09-12T20:58:19.945Z,70.20
2022-09-12T21:00:47.204Z,70.40
2022-09-12T21:03:14.947Z,70.50
2022-09-12T21:05:43.923Z,70.40
2022-09-12T21:08:11.300Z,70.60
2022-09-12T21:10:39.806Z,70.70
2022-09-12T21:13:06.599Z,70.80
2022-09-12T21:15:33.423Z,70.80
2022-09-12T21:18:00.304Z,70.90
2022-09-12T21:20:27.185Z,70.90
2022-09-12T21:22:55.653Z,71.00
2022-09-12T21:25:22.560Z,71.20
2022-09-12T21:27:49.355Z,71.20
2022-09-12T21:30:16.793Z,71.20
2022-09-12T21:32:43.579Z,71.30
2022-09-12T21:35:10.684Z,71.20
2022-09-12T21:37:39.103Z,71.30
2022-09-12T21:40:08.854Z,71.30
2022-09-12T21:42:35.772Z,71.40
2022-09-12T21:45:02.818Z,71.40
2022-09-12T21:47:29.651Z,71.50
2022-09-12T21:49:58.253Z,71.50
2022-09-12T21:52:26.598Z,71.40
2022-09-12T21:54:53.564Z,71.50
2022-09-12T21:57:21.836Z,71.50
2022-09-12T21:59:48.602Z,71.50
2022-09-12T22:02:16.019Z,71.40
2022-09-12T22:04:43.077Z,71.50
2022-09-12T22:07:10.753Z,71.60
2022-09-12T22:09:37.671Z,71.50
2022-09-12T22:12:04.960Z,71.60
2022-09-12T22:14:33.181Z,71.60
2022-09-12T22:17:00.147Z,71.60
2022-09-12T22:19:26.938Z,71.70
2022-09-12T22:22:12.420Z,71.60
2022-09-12T22:24:39.307Z,71.60
2022-09-12T22:27:06.943Z,71.60
2022-09-12T22:29:36.408Z,71.70
2022-09-12T22:32:03.760Z,71.70
2022-09-12T22:34:31.076Z,71.80
2022-09-12T22:36:58.012Z,71.90
2022-09-12T22:39:25.013Z,71.90
2022-09-12T22:41:51.936Z,72.00
2022-09-12T22:44:19.504Z,72.00
2022-09-12T22:46:48.587Z,72.00
2022-09-12T22:49:21.339Z,72.10
2022-09-12T22:51:48.230Z,72.10
2022-09-12T22:54:15.357Z,72.10
2022-09-12T22:56:42.249Z,72.20
2022-09-12T22:59:09.057Z,72.20
2022-09-12T23:01:36.612Z,72.30
2022-09-12T23:04:05.348Z,72.30
2022-09-12T23:06:32.266Z,72.40
2022-09-12T23:08:59.015Z,72.40
2022-09-12T23:11:26.845Z,72.50
2022-09-12T23:13:53.795Z,72.50
2022-09-12T23:16:22.584Z,72.60
2022-09-12T23:18:50.469Z,72.70
2022-09-12T23:21:21.268Z,72.70
2022-09-12T23:23:48.097Z,72.70
2022-09-12T23:26:17.300Z,72.80
2022-09-12T23:28:48.678Z,72.80
2022-09-12T23:31:16.842Z,72.80
2022-09-12T23:33:53.035Z,72.90
2022-09-12T23:36:22.370Z,72.90
2022-09-12T23:38:49.999Z,73.00
2022-09-12T23:41:18.217Z,73.00
2022-09-12T23:43:45.760Z,73.10
2022-09-12T23:46:13.677Z,73.00
2022-09-12T23:48:42.143Z,73.10
2022-09-12T23:51:09.935Z,73.10
2022-09-12T23:53:38.495Z,73.20
2022-09-12T23:56:06.163Z,73.30
2022-09-12T23:58:33.210Z,73.40
